sensor_id;sensor_type;location;lat;lon;timestamp;temperature;humidity
12872;DHT22;6504;53.766;9.626;2022-10-16T00:01:03;13.70;99.90
12872;DHT22;6504;53.766;9.626;2022-10-16T00:03:31;13.70;99.90
12872;DHT22;6504;53.766;9.626;2022-10-16T00:06:00;13.70;99.90
12872;DHT22;6504;53.766;9.626;2022-10-16T00:08:28;13.70;99.90
12872;DHT22;6504;53.766;9.626;2022-10-16T00:11:01;13.60;99.90
12872;DHT22;6504;53.766;9.626;2022-10-16T00:13:32;13.60;99.90
12872;DHT22;6504;53.766;9.626;2022-10-16T00:16:01;13.60;99.90
12872;DHT22;6504;53.766;9.626;2022-10-16T00:18:29;13.60;99.90
12872;DHT22;6504;53.766;9.626;2022-10-16T00:21:02;13.60;99.90
12872;DHT22;6504;53.766;9.626;2022-10-16T00:23:31;13.60;99.90
12872;DHT22;6504;53.766;9.626;2022-10-16T00:26:01;13.60;99.90
12872;DHT22;6504;53.766;9.626;2022-10-16T00:28:31;13.60;99.90
12872;DHT22;6504;53.766;9.626;2022-10-16T00:31:01;13.60;99.90
12872;DHT22;6504;53.766;9.626;2022-10-16T00:33:29;13.60;99.90
12872;DHT22;6504;53.766;9.626;2022-10-16T00:35:58;13.60;99.90
12872;DHT22;6504;53.766;9.626;2022-10-16T00:38:26;13.60;99.90
12872;DHT22;6504;53.766;9.626;2022-10-16T00:40:54;13.60;99.90
12872;DHT22;6504;53.766;9.626;2022-10-16T00:43:45;13.60;99.90
12872;DHT22;6504;53.766;9.626;2022-10-16T00:46:18;13.60;99.90
12872;DHT22;6504;53.766;9.626;2022-10-16T00:48:51;13.60;99.90
12872;DHT22;6504;53.766;9.626;2022-10-16T00:51:23;13.60;99.90
12872;DHT22;6504;53.766;9.626;2022-10-16T00:53:53;13.60;99.90
12872;DHT22;6504;53.766;9.626;2022-10-16T00:56:22;13.60;99.90
12872;DHT22;6504;53.766;9.626;2022-10-16T00:58:51;13.60;99.90
12872;DHT22;6504;53.766;9.626;2022-10-16T01:01:20;13.60;99.90
12872;DHT22;6504;53.766;9.626;2022-10-16T01:03:48;13.60;99.90
12872;DHT22;6504;53.766;9.626;2022-10-16T01:06:23;13.60;99.90
12872;DHT22;6504;53.766;9.626;2022-10-16T01:09:06;13.50;99.90
12872;DHT22;6504;53.766;9.626;2022-10-16T01:11:41;13.50;99.90
12872;DHT22;6504;53.766;9.626;2022-10-16T01:14:19;13.50;99.90
12872;DHT22;6504;53.766;9.626;2022-10-16T01:16:53;13.50;99.90
12872;DHT22;6504;53.766;9.626;2022-10-16T01:19:36;13.50;99.90
12872;DHT22;6504;53.766;9.626;2022-10-16T01:22:09;13.40;99.90
12872;DHT22;6504;53.766;9.626;2022-10-16T01:24:39;13.40;99.90
12872;DHT22;6504;53.766;9.626;2022-10-16T01:27:13;13.40;99.90
12872;DHT22;6504;53.766;9.626;2022-10-16T01:29:50;13.40;99.90
12872;DHT22;6504;53.766;9.626;2022-10-16T01:32:24;13.40;99.90
12872;DHT22;6504;53.766;9.626;2022-10-16T01:34:59;13.40;99.90
12872;DHT22;6504;53.766;9.626;2022-10-16T01:37:35;13.40;99.90
12872;DHT22;6504;53.766;9.626;2022-10-16T01:40:07;13.40;99.90
12872;DHT22;6504;53.766;9.626;2022-10-16T01:42:41;13.40;99.90
12872;DHT22;6504;53.766;9.626;2022-10-16T01:45:12;13.30;99.90
12872;DHT22;6504;53.766;9.626;2022-10-16T01:47:42;13.30;99.90
12872;DHT22;6504;53.766;9.626;2022-10-16T01:50:12;13.30;99.90
12872;DHT22;6504;53.766;9.626;2022-10-16T01:52:46;13.30;99.90
12872;DHT22;6504;53.766;9.626;2022-10-16T01:55:18;13.30;99.90
12872;DHT22;6504;53.766;9.626;2022-10-16T01:57:50;13.20;99.90
12872;DHT22;6504;53.766;9.626;2022-10-16T02:00:20;13.20;99.90
12872;DHT22;6504;53.766;9.626;2022-10-16T02:02:49;13.20;99.90
12872;DHT22;6504;53.766;9.626;2022-10-16T02:05:23;13.20;99.90
12872;DHT22;6504;53.766;9.626;2022-10-16T02:07:53;13.20;99.90
12872;DHT22;6504;53.766;9.626;2022-10-16T02:10:23;13.20;99.90
12872;DHT22;6504;53.766;9.626;2022-10-16T02:12:58;13.20;99.90
12872;DHT22;6504;53.766;9.626;2022-10-16T02:15:27;13.10;99.90
12872;DHT22;6504;53.766;9.626;2022-10-16T02:17:55;13.10;99.90
12872;DHT22;6504;53.766;9.626;2022-10-16T02:20:27;13.10;99.90
12872;DHT22;6504;53.766;9.626;2022-10-16T02:22:56;13.10;99.90
12872;DHT22;6504;53.766;9.626;2022-10-16T02:25:30;13.00;99.90
12872;DHT22;6504;53.766;9.626;2022-10-16T02:28:02;13.00;99.90
12872;DHT22;6504;53.766;9.626;2022-10-16T02:30:34;13.00;99.90
12872;DHT22;6504;53.766;9.626;2022-10-16T02:33:06;13.00;99.90
12872;DHT22;6504;53.766;9.626;2022-10-16T02:35:36;13.00;99.90
12872;DHT22;6504;53.766;9.626;2022-10-16T02:38:06;13.00;99.90
12872;DHT22;6504;53.766;9.626;2022-10-16T02:40:36;12.90;99.90
12872;DHT22;6504;53.766;9.626;2022-10-16T02:43:07;12.90;99.90
12872;DHT22;6504;53.766;9.626;2022-10-16T02:45:35;12.90;99.90
12872;DHT22;6504;53.766;9.626;2022-10-16T02:48:04;12.90;99.90
12872;DHT22;6504;53.766;9.626;2022-10-16T02:50:32;12.90;99.90
12872;DHT22;6504;53.766;9.626;2022-10-16T02:53:00;12.90;99.90
12872;DHT22;6504;53.766;9.626;2022-10-16T02:55:28;12.80;99.90
12872;DHT22;6504;53.766;9.626;2022-10-16T02:57:57;12.80;99.90
12872;DHT22;6504;53.766;9.626;2022-10-16T03:00:26;12.80;99.90
12872;DHT22;6504;53.766;9.626;2022-10-16T03:02:55;12.80;99.90
12872;DHT22;6504;53.766;9.626;2022-10-16T03:05:23;12.70;99.90
12872;DHT22;6504;53.766;9.626;2022-10-16T03:07:51;12.70;99.90
12872;DHT22;6504;53.766;9.626;2022-10-16T03:10:19;12.70;99.90
12872;DHT22;6504;53.766;9.626;2022-10-16T03:12:47;12.70;99.90
12872;DHT22;6504;53.766;9.626;2022-10-16T03:15:15;12.70;99.90
12872;DHT22;6504;53.766;9.626;2022-10-16T03:17:44;12.70;99.90
12872;DHT22;6504;53.766;9.626;2022-10-16T03:20:13;12.70;99.90
12872;DHT22;6504;53.766;9.626;2022-10-16T03:22:42;12.70;99.90
12872;DHT22;6504;53.766;9.626;2022-10-16T03:25:10;12.60;99.90
12872;DHT22;6504;53.766;9.626;2022-10-16T03:27:38;12.60;99.90
12872;DHT22;6504;53.766;9.626;2022-10-16T03:30:07;12.60;99.90
12872;DHT22;6504;53.766;9.626;2022-10-16T03:32:35;12.60;99.90
12872;DHT22;6504;53.766;9.626;2022-10-16T03:35:05;12.60;99.90
12872;DHT22;6504;53.766;9.626;2022-10-16T03:37:34;12.60;99.90
12872;DHT22;6504;53.766;9.626;2022-10-16T03:40:02;12.60;99.90
12872;DHT22;6504;53.766;9.626;2022-10-16T03:42:30;12.60;99.90
12872;DHT22;6504;53.766;9.626;2022-10-16T03:44:58;12.60;99.90
12872;DHT22;6504;53.766;9.626;2022-10-16T03:47:26;12.50;99.90
12872;DHT22;6504;53.766;9.626;2022-10-16T03:49:55;12.50;99.90
12872;DHT22;6504;53.766;9.626;2022-10-16T03:52:24;12.50;99.90
12872;DHT22;6504;53.766;9.626;2022-10-16T03:54:52;12.50;99.90
12872;DHT22;6504;53.766;9.626;2022-10-16T03:57:20;12.50;99.90
12872;DHT22;6504;53.766;9.626;2022-10-16T03:59:49;12.50;99.90
12872;DHT22;6504;53.766;9.626;2022-10-16T04:02:17;12.50;99.90
12872;DHT22;6504;53.766;9.626;2022-10-16T04:04:45;12.50;99.90
12872;DHT22;6504;53.766;9.626;2022-10-16T04:07:13;12.50;99.90
12872;DHT22;6504;53.766;9.626;2022-10-16T04:09:42;12.50;99.90
12872;DHT22;6504;53.766;9.626;2022-10-16T04:12:10;12.50;99.90
12872;DHT22;6504;53.766;9.626;2022-10-16T04:14:38;12.50;99.90
12872;DHT22;6504;53.766;9.626;2022-10-16T04:17:06;12.50;99.90
12872;DHT22;6504;53.766;9.626;2022-10-16T04:19:34;12.50;99.90
12872;DHT22;6504;53.766;9.626;2022-10-16T04:22:02;12.50;99.90
12872;DHT22;6504;53.766;9.626;2022-10-16T04:24:31;12.50;99.90
12872;DHT22;6504;53.766;9.626;2022-10-16T04:27:00;12.50;99.90
12872;DHT22;6504;53.766;9.626;2022-10-16T04:29:28;12.50;99.90
12872;DHT22;6504;53.766;9.626;2022-10-16T04:31:56;12.40;99.90
12872;DHT22;6504;53.766;9.626;2022-10-16T04:34:24;12.40;99.90
12872;DHT22;6504;53.766;9.626;2022-10-16T04:36:52;12.40;99.90
12872;DHT22;6504;53.766;9.626;2022-10-16T04:39:20;12.40;99.90
12872;DHT22;6504;53.766;9.626;2022-10-16T04:41:48;12.40;99.90
12872;DHT22;6504;53.766;9.626;2022-10-16T04:44:18;12.40;99.90
12872;DHT22;6504;53.766;9.626;2022-10-16T04:46:46;12.40;99.90
12872;DHT22;6504;53.766;9.626;2022-10-16T04:49:14;12.40;99.90
12872;DHT22;6504;53.766;9.626;2022-10-16T04:51:42;12.40;99.90
12872;DHT22;6504;53.766;9.626;2022-10-16T04:54:10;12.40;99.90
12872;DHT22;6504;53.766;9.626;2022-10-16T04:56:38;12.40;99.90
12872;DHT22;6504;53.766;9.626;2022-10-16T04:59:13;12.40;99.90
12872;DHT22;6504;53.766;9.626;2022-10-16T05:01:43;12.40;99.90
12872;DHT22;6504;53.766;9.626;2022-10-16T05:04:11;12.40;99.90
12872;DHT22;6504;53.766;9.626;2022-10-16T05:06:39;12.40;99.90
12872;DHT22;6504;53.766;9.626;2022-10-16T05:09:08;12.50;99.90
12872;DHT22;6504;53.766;9.626;2022-10-16T05:11:36;12.50;99.90
12872;DHT22;6504;53.766;9.626;2022-10-16T05:14:04;12.50;99.90
12872;DHT22;6504;53.766;9.626;2022-10-16T05:16:32;12.50;99.90
12872;DHT22;6504;53.766;9.626;2022-10-16T05:19:02;12.50;99.90
12872;DHT22;6504;53.766;9.626;2022-10-16T05:21:50;12.50;99.90
12872;DHT22;6504;53.766;9.626;2022-10-16T05:24:18;12.50;99.90
12872;DHT22;6504;53.766;9.626;2022-10-16T05:26:46;12.50;99.90
12872;DHT22;6504;53.766;9.626;2022-10-16T05:29:14;12.50;99.90
12872;DHT22;6504;53.766;9.626;2022-10-16T05:31:42;12.50;99.90
12872;DHT22;6504;53.766;9.626;2022-10-16T05:34:12;12.50;99.90
12872;DHT22;6504;53.766;9.626;2022-10-16T05:36:40;12.50;99.90
12872;DHT22;6504;53.766;9.626;2022-10-16T05:39:08;12.50;99.90
12872;DHT22;6504;53.766;9.626;2022-10-16T05:41:36;12.50;99.90
12872;DHT22;6504;53.766;9.626;2022-10-16T05:44:04;12.50;99.90
12872;DHT22;6504;53.766;9.626;2022-10-16T05:46:33;12.50;99.90
12872;DHT22;6504;53.766;9.626;2022-10-16T05:49:01;12.50;99.90
12872;DHT22;6504;53.766;9.626;2022-10-16T05:51:30;12.50;99.90
12872;DHT22;6504;53.766;9.626;2022-10-16T05:53:58;12.50;99.90
12872;DHT22;6504;53.766;9.626;2022-10-16T05:56:26;12.50;99.90
12872;DHT22;6504;53.766;9.626;2022-10-16T05:58:55;12.50;99.90
12872;DHT22;6504;53.766;9.626;2022-10-16T06:01:23;12.50;99.90
12872;DHT22;6504;53.766;9.626;2022-10-16T06:03:52;12.50;99.90
12872;DHT22;6504;53.766;9.626;2022-10-16T06:06:22;12.50;99.90
12872;DHT22;6504;53.766;9.626;2022-10-16T06:08:53;12.50;99.90
12872;DHT22;6504;53.766;9.626;2022-10-16T06:11:22;12.50;99.90
12872;DHT22;6504;53.766;9.626;2022-10-16T06:13:51;12.50;99.90
12872;DHT22;6504;53.766;9.626;2022-10-16T06:16:20;12.50;99.90
12872;DHT22;6504;53.766;9.626;2022-10-16T06:18:50;12.50;99.90
12872;DHT22;6504;53.766;9.626;2022-10-16T06:21:21;12.50;99.90
12872;DHT22;6504;53.766;9.626;2022-10-16T06:23:53;12.50;99.90
12872;DHT22;6504;53.766;9.626;2022-10-16T06:26:23;12.50;99.90
12872;DHT22;6504;53.766;9.626;2022-10-16T06:28:53;12.50;99.90
12872;DHT22;6504;53.766;9.626;2022-10-16T06:31:22;12.50;99.90
12872;DHT22;6504;53.766;9.626;2022-10-16T06:33:54;12.50;99.90
12872;DHT22;6504;53.766;9.626;2022-10-16T06:36:24;12.50;99.90
12872;DHT22;6504;53.766;9.626;2022-10-16T06:38:53;12.50;99.90
12872;DHT22;6504;53.766;9.626;2022-10-16T06:41:22;12.50;99.90
12872;DHT22;6504;53.766;9.626;2022-10-16T06:43:51;12.50;99.90
12872;DHT22;6504;53.766;9.626;2022-10-16T06:46:21;12.50;99.90
12872;DHT22;6504;53.766;9.626;2022-10-16T06:48:50;12.50;99.90
12872;DHT22;6504;53.766;9.626;2022-10-16T06:51:19;12.50;99.90
12872;DHT22;6504;53.766;9.626;2022-10-16T06:53:49;12.50;99.90
12872;DHT22;6504;53.766;9.626;2022-10-16T06:56:30;12.50;99.90
12872;DHT22;6504;53.766;9.626;2022-10-16T06:58:59;12.60;99.90
12872;DHT22;6504;53.766;9.626;2022-10-16T07:01:28;12.60;99.90
12872;DHT22;6504;53.766;9.626;2022-10-16T07:03:59;12.60;99.90
12872;DHT22;6504;53.766;9.626;2022-10-16T07:06:31;12.60;99.90
12872;DHT22;6504;53.766;9.626;2022-10-16T07:09:02;12.70;99.90
12872;DHT22;6504;53.766;9.626;2022-10-16T07:11:32;12.70;99.90
12872;DHT22;6504;53.766;9.626;2022-10-16T07:14:00;12.70;99.90
12872;DHT22;6504;53.766;9.626;2022-10-16T07:16:29;12.70;99.90
12872;DHT22;6504;53.766;9.626;2022-10-16T07:18:59;12.70;99.90
12872;DHT22;6504;53.766;9.626;2022-10-16T07:21:29;12.70;99.90
12872;DHT22;6504;53.766;9.626;2022-10-16T07:23:59;12.80;99.90
12872;DHT22;6504;53.766;9.626;2022-10-16T07:26:32;12.80;99.90
12872;DHT22;6504;53.766;9.626;2022-10-16T07:29:01;12.80;99.90
12872;DHT22;6504;53.766;9.626;2022-10-16T07:31:30;12.80;99.90
12872;DHT22;6504;53.766;9.626;2022-10-16T07:33:59;12.80;99.90
12872;DHT22;6504;53.766;9.626;2022-10-16T07:36:27;12.80;99.90
12872;DHT22;6504;53.766;9.626;2022-10-16T07:38:55;12.80;99.90
12872;DHT22;6504;53.766;9.626;2022-10-16T07:41:26;12.90;99.90
12872;DHT22;6504;53.766;9.626;2022-10-16T07:43:56;12.90;99.90
12872;DHT22;6504;53.766;9.626;2022-10-16T07:46:27;12.90;99.90
12872;DHT22;6504;53.766;9.626;2022-10-16T07:48:55;13.00;99.90
12872;DHT22;6504;53.766;9.626;2022-10-16T07:51:25;13.00;99.90
12872;DHT22;6504;53.766;9.626;2022-10-16T07:53:53;13.10;99.90
12872;DHT22;6504;53.766;9.626;2022-10-16T07:56:22;13.10;99.90
12872;DHT22;6504;53.766;9.626;2022-10-16T07:58:50;13.20;99.90
12872;DHT22;6504;53.766;9.626;2022-10-16T08:01:20;13.20;99.90
12872;DHT22;6504;53.766;9.626;2022-10-16T08:03:50;13.20;99.90
12872;DHT22;6504;53.766;9.626;2022-10-16T08:06:20;13.30;99.90
12872;DHT22;6504;53.766;9.626;2022-10-16T08:08:54;13.30;99.90
12872;DHT22;6504;53.766;9.626;2022-10-16T08:11:22;13.30;99.90
12872;DHT22;6504;53.766;9.626;2022-10-16T08:13:50;13.40;99.90
12872;DHT22;6504;53.766;9.626;2022-10-16T08:16:20;13.40;99.90
12872;DHT22;6504;53.766;9.626;2022-10-16T08:18:49;13.40;99.90
12872;DHT22;6504;53.766;9.626;2022-10-16T08:21:20;13.50;99.90
12872;DHT22;6504;53.766;9.626;2022-10-16T08:23:49;13.50;99.90
12872;DHT22;6504;53.766;9.626;2022-10-16T08:26:24;13.50;99.90
12872;DHT22;6504;53.766;9.626;2022-10-16T08:28:53;13.50;99.90
12872;DHT22;6504;53.766;9.626;2022-10-16T08:31:23;13.60;99.90
12872;DHT22;6504;53.766;9.626;2022-10-16T08:33:53;13.60;99.90
12872;DHT22;6504;53.766;9.626;2022-10-16T08:36:21;13.60;99.90
12872;DHT22;6504;53.766;9.626;2022-10-16T08:38:49;13.60;99.90
12872;DHT22;6504;53.766;9.626;2022-10-16T08:44:35;13.70;99.90
12872;DHT22;6504;53.766;9.626;2022-10-16T08:47:15;13.70;99.90
12872;DHT22;6504;53.766;9.626;2022-10-16T08:49:56;13.70;99.90
12872;DHT22;6504;53.766;9.626;2022-10-16T08:52:29;13.80;99.90
12872;DHT22;6504;53.766;9.626;2022-10-16T08:54:57;13.80;99.90
12872;DHT22;6504;53.766;9.626;2022-10-16T08:57:26;13.80;99.90
12872;DHT22;6504;53.766;9.626;2022-10-16T08:59:55;13.90;99.90
12872;DHT22;6504;53.766;9.626;2022-10-16T09:02:31;13.90;99.90
12872;DHT22;6504;53.766;9.626;2022-10-16T09:05:22;14.00;99.90
12872;DHT22;6504;53.766;9.626;2022-10-16T09:08:03;14.10;99.90
12872;DHT22;6504;53.766;9.626;2022-10-16T09:10:46;14.20;99.90
12872;DHT22;6504;53.766;9.626;2022-10-16T09:13:21;14.20;99.90
12872;DHT22;6504;53.766;9.626;2022-10-16T09:15:56;14.30;99.90
12872;DHT22;6504;53.766;9.626;2022-10-16T09:18:33;14.40;99.90
12872;DHT22;6504;53.766;9.626;2022-10-16T09:21:09;14.40;99.90
12872;DHT22;6504;53.766;9.626;2022-10-16T09:23:41;14.40;99.90
12872;DHT22;6504;53.766;9.626;2022-10-16T09:26:12;14.40;99.90
12872;DHT22;6504;53.766;9.626;2022-10-16T09:28:41;14.50;99.90
12872;DHT22;6504;53.766;9.626;2022-10-16T09:31:15;14.50;99.90
12872;DHT22;6504;53.766;9.626;2022-10-16T09:33:49;14.60;99.90
12872;DHT22;6504;53.766;9.626;2022-10-16T09:36:19;14.70;99.90
12872;DHT22;6504;53.766;9.626;2022-10-16T09:38:48;14.70;99.90
12872;DHT22;6504;53.766;9.626;2022-10-16T09:41:19;14.80;99.90
12872;DHT22;6504;53.766;9.626;2022-10-16T09:43:52;14.80;99.90
12872;DHT22;6504;53.766;9.626;2022-10-16T09:46:25;14.80;99.90
12872;DHT22;6504;53.766;9.626;2022-10-16T09:48:57;14.90;99.90
12872;DHT22;6504;53.766;9.626;2022-10-16T09:51:28;14.90;99.90
12872;DHT22;6504;53.766;9.626;2022-10-16T09:53:58;14.90;99.90
12872;DHT22;6504;53.766;9.626;2022-10-16T09:56:28;15.00;99.90
12872;DHT22;6504;53.766;9.626;2022-10-16T09:58:57;15.00;99.90
12872;DHT22;6504;53.766;9.626;2022-10-16T10:01:31;15.00;99.90
12872;DHT22;6504;53.766;9.626;2022-10-16T10:04:05;15.10;99.90
12872;DHT22;6504;53.766;9.626;2022-10-16T10:06:35;15.20;99.90
12872;DHT22;6504;53.766;9.626;2022-10-16T10:09:06;15.20;99.90
12872;DHT22;6504;53.766;9.626;2022-10-16T10:11:44;15.30;99.90
12872;DHT22;6504;53.766;9.626;2022-10-16T10:14:20;15.40;99.90
12872;DHT22;6504;53.766;9.626;2022-10-16T10:16:49;15.50;99.90
12872;DHT22;6504;53.766;9.626;2022-10-16T10:19:21;15.70;99.90
12872;DHT22;6504;53.766;9.626;2022-10-16T10:21:50;15.80;99.90
12872;DHT22;6504;53.766;9.626;2022-10-16T10:24:19;15.80;99.90
12872;DHT22;6504;53.766;9.626;2022-10-16T10:26:51;15.80;99.90
12872;DHT22;6504;53.766;9.626;2022-10-16T10:29:36;15.80;99.90
12872;DHT22;6504;53.766;9.626;2022-10-16T10:32:20;15.90;99.90
12872;DHT22;6504;53.766;9.626;2022-10-16T10:35:07;16.00;99.90
12872;DHT22;6504;53.766;9.626;2022-10-16T10:40:42;16.10;99.90
12872;DHT22;6504;53.766;9.626;2022-10-16T10:43:22;16.20;99.90
12872;DHT22;6504;53.766;9.626;2022-10-16T10:45:58;16.20;99.90
12872;DHT22;6504;53.766;9.626;2022-10-16T10:48:43;16.20;99.90
12872;DHT22;6504;53.766;9.626;2022-10-16T10:51:20;16.30;99.90
12872;DHT22;6504;53.766;9.626;2022-10-16T10:53:56;16.30;99.90
12872;DHT22;6504;53.766;9.626;2022-10-16T10:56:45;16.40;99.90
12872;DHT22;6504;53.766;9.626;2022-10-16T10:59:37;16.40;99.90
12872;DHT22;6504;53.766;9.626;2022-10-16T11:02:15;16.50;99.90
12872;DHT22;6504;53.766;9.626;2022-10-16T11:05:20;16.50;99.90
12872;DHT22;6504;53.766;9.626;2022-10-16T11:07:53;16.60;99.90
12872;DHT22;6504;53.766;9.626;2022-10-16T11:10:24;16.60;99.90
12872;DHT22;6504;53.766;9.626;2022-10-16T11:12:57;16.70;99.90
12872;DHT22;6504;53.766;9.626;2022-10-16T11:15:30;16.60;99.90
12872;DHT22;6504;53.766;9.626;2022-10-16T11:18:04;16.70;99.90
12872;DHT22;6504;53.766;9.626;2022-10-16T11:20:37;16.60;99.90
12872;DHT22;6504;53.766;9.626;2022-10-16T11:23:14;16.60;99.90
12872;DHT22;6504;53.766;9.626;2022-10-16T11:25:45;16.60;99.90
12872;DHT22;6504;53.766;9.626;2022-10-16T11:28:15;16.60;99.90
12872;DHT22;6504;53.766;9.626;2022-10-16T11:30:49;16.60;99.90
12872;DHT22;6504;53.766;9.626;2022-10-16T11:33:27;16.50;99.90
12872;DHT22;6504;53.766;9.626;2022-10-16T11:36:04;16.50;99.90
12872;DHT22;6504;53.766;9.626;2022-10-16T11:38:39;16.50;99.90
12872;DHT22;6504;53.766;9.626;2022-10-16T11:41:15;16.50;99.90
12872;DHT22;6504;53.766;9.626;2022-10-16T11:43:50;16.60;99.90
12872;DHT22;6504;53.766;9.626;2022-10-16T11:46:22;16.70;99.90
12872;DHT22;6504;53.766;9.626;2022-10-16T11:48:56;16.80;99.90
12872;DHT22;6504;53.766;9.626;2022-10-16T11:51:33;16.90;99.90
12872;DHT22;6504;53.766;9.626;2022-10-16T11:54:08;16.80;99.90
12872;DHT22;6504;53.766;9.626;2022-10-16T11:56:40;16.80;99.90
12872;DHT22;6504;53.766;9.626;2022-10-16T11:59:15;16.90;99.90
12872;DHT22;6504;53.766;9.626;2022-10-16T12:01:48;16.90;99.90
12872;DHT22;6504;53.766;9.626;2022-10-16T12:04:24;17.00;99.90
12872;DHT22;6504;53.766;9.626;2022-10-16T12:06:58;17.10;99.90
12872;DHT22;6504;53.766;9.626;2022-10-16T12:09:31;17.20;99.90
12872;DHT22;6504;53.766;9.626;2022-10-16T12:12:00;17.30;99.90
12872;DHT22;6504;53.766;9.626;2022-10-16T12:14:37;17.30;99.90
12872;DHT22;6504;53.766;9.626;2022-10-16T12:17:33;17.30;99.90
12872;DHT22;6504;53.766;9.626;2022-10-16T12:20:23;17.20;99.90
12872;DHT22;6504;53.766;9.626;2022-10-16T12:22:54;17.10;99.90
12872;DHT22;6504;53.766;9.626;2022-10-16T12:25:27;17.00;99.90
12872;DHT22;6504;53.766;9.626;2022-10-16T12:27:57;16.90;99.90
12872;DHT22;6504;53.766;9.626;2022-10-16T12:30:29;16.80;99.90
12872;DHT22;6504;53.766;9.626;2022-10-16T12:33:03;16.70;99.90
12872;DHT22;6504;53.766;9.626;2022-10-16T12:35:34;16.70;99.90
12872;DHT22;6504;53.766;9.626;2022-10-16T12:38:16;16.70;99.90
12872;DHT22;6504;53.766;9.626;2022-10-16T12:40:53;16.70;99.90
12872;DHT22;6504;53.766;9.626;2022-10-16T12:43:37;16.80;99.90
12872;DHT22;6504;53.766;9.626;2022-10-16T12:46:22;16.90;99.90
12872;DHT22;6504;53.766;9.626;2022-10-16T12:48:50;16.90;99.90
12872;DHT22;6504;53.766;9.626;2022-10-16T12:51:35;17.00;99.90
12872;DHT22;6504;53.766;9.626;2022-10-16T12:54:11;17.00;99.90
12872;DHT22;6504;53.766;9.626;2022-10-16T12:56:50;17.10;99.90
12872;DHT22;6504;53.766;9.626;2022-10-16T12:59:28;17.10;99.90
12872;DHT22;6504;53.766;9.626;2022-10-16T13:02:20;17.00;99.90
12872;DHT22;6504;53.766;9.626;2022-10-16T13:05:02;17.00;99.90
12872;DHT22;6504;53.766;9.626;2022-10-16T13:07:45;17.00;99.90
12872;DHT22;6504;53.766;9.626;2022-10-16T13:10:23;17.10;99.90
12872;DHT22;6504;53.766;9.626;2022-10-16T13:13:29;17.10;99.90
12872;DHT22;6504;53.766;9.626;2022-10-16T13:16:10;17.20;99.90
12872;DHT22;6504;53.766;9.626;2022-10-16T13:18:50;17.20;99.90
12872;DHT22;6504;53.766;9.626;2022-10-16T13:21:33;17.20;99.90
12872;DHT22;6504;53.766;9.626;2022-10-16T13:24:13;17.10;99.90
12872;DHT22;6504;53.766;9.626;2022-10-16T13:26:48;17.10;99.90
12872;DHT22;6504;53.766;9.626;2022-10-16T13:29:20;17.00;99.90
12872;DHT22;6504;53.766;9.626;2022-10-16T13:31:49;17.00;99.90
12872;DHT22;6504;53.766;9.626;2022-10-16T13:34:20;17.00;99.90
12872;DHT22;6504;53.766;9.626;2022-10-16T13:36:50;17.00;99.90
12872;DHT22;6504;53.766;9.626;2022-10-16T13:39:22;17.00;99.90
12872;DHT22;6504;53.766;9.626;2022-10-16T13:42:05;17.00;99.90
12872;DHT22;6504;53.766;9.626;2022-10-16T13:44:41;17.00;99.90
12872;DHT22;6504;53.766;9.626;2022-10-16T13:47:15;17.10;99.90
12872;DHT22;6504;53.766;9.626;2022-10-16T13:49:44;17.10;99.90
12872;DHT22;6504;53.766;9.626;2022-10-16T13:52:18;17.20;99.90
12872;DHT22;6504;53.766;9.626;2022-10-16T13:54:47;17.20;99.90
12872;DHT22;6504;53.766;9.626;2022-10-16T13:57:16;17.20;99.90
12872;DHT22;6504;53.766;9.626;2022-10-16T14:00:00;17.20;99.90
12872;DHT22;6504;53.766;9.626;2022-10-16T14:02:33;17.20;99.90
12872;DHT22;6504;53.766;9.626;2022-10-16T14:05:04;17.20;99.90
12872;DHT22;6504;53.766;9.626;2022-10-16T14:07:36;17.20;99.90
12872;DHT22;6504;53.766;9.626;2022-10-16T14:10:07;17.20;99.90
12872;DHT22;6504;53.766;9.626;2022-10-16T14:12:35;17.20;99.90
12872;DHT22;6504;53.766;9.626;2022-10-16T14:15:15;17.20;99.90
12872;DHT22;6504;53.766;9.626;2022-10-16T14:17:47;17.20;99.90
12872;DHT22;6504;53.766;9.626;2022-10-16T14:20:16;17.20;99.90
12872;DHT22;6504;53.766;9.626;2022-10-16T14:22:44;17.30;99.90
12872;DHT22;6504;53.766;9.626;2022-10-16T14:25:28;17.30;99.90
12872;DHT22;6504;53.766;9.626;2022-10-16T14:27:59;17.30;99.90
12872;DHT22;6504;53.766;9.626;2022-10-16T14:30:35;17.30;99.90
12872;DHT22;6504;53.766;9.626;2022-10-16T14:33:05;17.30;99.90
12872;DHT22;6504;53.766;9.626;2022-10-16T14:35:35;17.30;99.90
12872;DHT22;6504;53.766;9.626;2022-10-16T14:38:05;17.30;99.90
12872;DHT22;6504;53.766;9.626;2022-10-16T14:40:35;17.40;99.90
12872;DHT22;6504;53.766;9.626;2022-10-16T14:43:05;17.40;99.90
12872;DHT22;6504;53.766;9.626;2022-10-16T14:45:35;17.30;99.90
12872;DHT22;6504;53.766;9.626;2022-10-16T14:48:06;17.30;99.90
12872;DHT22;6504;53.766;9.626;2022-10-16T14:50:45;17.20;99.90
12872;DHT22;6504;53.766;9.626;2022-10-16T14:53:14;17.20;99.90
12872;DHT22;6504;53.766;9.626;2022-10-16T14:55:42;17.20;99.90
12872;DHT22;6504;53.766;9.626;2022-10-16T14:58:14;17.20;99.90
12872;DHT22;6504;53.766;9.626;2022-10-16T15:00:44;17.10;99.90
12872;DHT22;6504;53.766;9.626;2022-10-16T15:03:12;17.10;99.90
12872;DHT22;6504;53.766;9.626;2022-10-16T15:05:40;17.10;99.90
12872;DHT22;6504;53.766;9.626;2022-10-16T15:08:08;17.10;99.90
12872;DHT22;6504;53.766;9.626;2022-10-16T15:10:40;17.00;99.90
12872;DHT22;6504;53.766;9.626;2022-10-16T15:13:12;17.00;99.90
12872;DHT22;6504;53.766;9.626;2022-10-16T15:15:44;16.90;99.90
12872;DHT22;6504;53.766;9.626;2022-10-16T15:18:12;16.90;99.90
12872;DHT22;6504;53.766;9.626;2022-10-16T15:20:49;16.80;99.90
12872;DHT22;6504;53.766;9.626;2022-10-16T15:23:19;16.80;99.90
12872;DHT22;6504;53.766;9.626;2022-10-16T15:25:48;16.70;99.90
12872;DHT22;6504;53.766;9.626;2022-10-16T15:28:18;16.70;99.90
12872;DHT22;6504;53.766;9.626;2022-10-16T15:30:49;16.60;99.90
12872;DHT22;6504;53.766;9.626;2022-10-16T15:33:20;16.50;99.90
12872;DHT22;6504;53.766;9.626;2022-10-16T15:35:51;16.50;99.90
12872;DHT22;6504;53.766;9.626;2022-10-16T15:38:20;16.40;99.90
12872;DHT22;6504;53.766;9.626;2022-10-16T15:40:49;16.30;99.90
12872;DHT22;6504;53.766;9.626;2022-10-16T15:43:17;16.30;99.90
12872;DHT22;6504;53.766;9.626;2022-10-16T15:45:58;16.20;99.90
12872;DHT22;6504;53.766;9.626;2022-10-16T15:48:27;16.10;99.90
12872;DHT22;6504;53.766;9.626;2022-10-16T15:50:55;16.00;99.90
12872;DHT22;6504;53.766;9.626;2022-10-16T15:53:23;15.90;99.90
12872;DHT22;6504;53.766;9.626;2022-10-16T15:55:51;15.80;99.90
12872;DHT22;6504;53.766;9.626;2022-10-16T15:58:19;15.70;99.90
12872;DHT22;6504;53.766;9.626;2022-10-16T16:00:55;15.60;99.90
12872;DHT22;6504;53.766;9.626;2022-10-16T16:03:25;15.60;99.90
12872;DHT22;6504;53.766;9.626;2022-10-16T16:05:53;15.50;99.90
12872;DHT22;6504;53.766;9.626;2022-10-16T16:08:22;15.40;99.90
12872;DHT22;6504;53.766;9.626;2022-10-16T16:10:57;15.40;99.90
12872;DHT22;6504;53.766;9.626;2022-10-16T16:13:25;15.30;99.90
12872;DHT22;6504;53.766;9.626;2022-10-16T16:15:55;15.30;99.90
12872;DHT22;6504;53.766;9.626;2022-10-16T16:18:23;15.20;99.90
12872;DHT22;6504;53.766;9.626;2022-10-16T16:20:52;15.20;99.90